Terminal Aerodrome Forecast
Issued by NWS

Home | Current Version | Previous Version | Text Only | Print | Product List | Glossary On
Versions: 1 2 3 4 5 6 7 8 9 10 11 12 13 14 15 16 17 18
177
FTUS43 KAPX 292325
TAFTVC
TAF
KTVC 292325Z 3000/3024 02010KT P6SM BKN130
     FM300200 03009KT P6SM VCSH OVC110
     FM300500 04008KT P6SM -RA OVC090
     FM300800 06010G19KT P6SM RA OVC035
     FM300900 07011G20KT P6SM RA OVC015
     FM302100 08013G23KT 2SM -RA BR OVC015=

USA.gov is the U.S. government's official web portal to all federal, state and local government web resources and services.